createdAt,value
2022-09-26T00:00:44.689Z,84.36
2022-09-26T00:03:52.162Z,85.35
2022-09-26T00:06:56.591Z,85.56
2022-09-26T00:09:59.527Z,85.95
2022-09-26T00:13:01.758Z,85.87
2022-09-26T00:16:04.332Z,86.70
2022-09-26T00:19:07.447Z,87.60
2022-09-26T00:22:09.609Z,87.99
2022-09-26T00:25:11.961Z,87.73
2022-09-26T00:28:21.505Z,88.14
2022-09-26T00:31:32.260Z,88.17
2022-09-26T00:34:34.485Z,88.43
2022-09-26T00:37:36.731Z,88.66
2022-09-26T00:40:38.911Z,89.26
2022-09-26T00:43:42.580Z,89.35
2022-09-26T00:46:48.439Z,89.66
2022-09-26T00:49:56.109Z,90.08
2022-09-26T00:53:06.858Z,90.61
2022-09-26T00:56:16.164Z,91.20
2022-09-26T00:59:31.047Z,91.09
2022-09-26T01:02:34.305Z,91.57
2022-09-26T01:05:37.876Z,91.99
2022-09-26T01:08:43.947Z,92.39
2022-09-26T01:11:46.284Z,92.56
2022-09-26T01:14:55.039Z,92.75
2022-09-26T01:17:57.385Z,92.82
2022-09-26T01:21:13.569Z,93.07
2022-09-26T01:24:36.903Z,93.08
2022-09-26T01:27:45.543Z,93.31
2022-09-26T01:30:59.706Z,93.56
2022-09-26T01:34:16.819Z,93.76
2022-09-26T01:37:39.903Z,93.79
2022-09-26T01:41:34.042Z,92.70
2022-09-26T01:44:55.347Z,92.53
2022-09-26T01:48:05.554Z,92.91
2022-09-26T01:51:16.655Z,92.95
2022-09-26T01:54:36.623Z,93.14
2022-09-26T01:57:52.833Z,92.52
2022-09-26T02:00:58.433Z,93.09
2022-09-26T02:04:07.877Z,93.37
2022-09-26T02:07:21.512Z,94.13
2022-09-26T02:10:38.354Z,94.44
2022-09-26T02:13:48.925Z,94.50
2022-09-26T02:16:55.122Z,94.67
2022-09-26T02:20:30.536Z,94.87
2022-09-26T02:23:32.752Z,95.25
2022-09-26T02:26:35.175Z,95.26
2022-09-26T02:29:37.376Z,94.97
2022-09-26T02:32:40.444Z,94.77
2022-09-26T02:35:55.709Z,93.88
2022-09-26T02:39:00.766Z,95.04
2022-09-26T02:42:36.624Z,95.71
2022-09-26T02:45:47.453Z,96.63
2022-09-26T02:48:59.090Z,97.17
2022-09-26T02:52:41.764Z,96.46
2022-09-26T02:56:11.618Z,96.41
2022-09-26T02:59:22.708Z,96.61
2022-09-26T03:02:50.812Z,97.13
2022-09-26T03:05:57.520Z,97.16
2022-09-26T03:09:00.195Z,97.22
2022-09-26T03:12:06.270Z,96.94
2022-09-26T03:15:13.167Z,96.93
2022-09-26T03:18:20.391Z,95.40
2022-09-26T03:21:23.044Z,95.47
2022-09-26T03:24:26.791Z,95.69
2022-09-26T03:27:32.091Z,95.89
2022-09-26T03:30:34.779Z,95.64
2022-09-26T03:33:59.153Z,95.44
2022-09-26T03:37:01.616Z,95.89
2022-09-26T03:40:10.881Z,96.11
2022-09-26T03:43:29.504Z,95.63
2022-09-26T03:46:37.543Z,95.52
2022-09-26T03:49:42.048Z,96.04
2022-09-26T03:52:46.002Z,96.48
2022-09-26T03:55:48.210Z,96.65
2022-09-26T03:58:50.392Z,97.30
2022-09-26T04:01:53.329Z,97.68
2022-09-26T04:04:55.631Z,98.11
2022-09-26T04:07:59.116Z,97.77
2022-09-26T04:11:07.021Z,97.80
2022-09-26T04:14:10.114Z,97.78
2022-09-26T04:17:13.132Z,97.70
2022-09-26T04:20:18.559Z,97.43
2022-09-26T04:23:21.711Z,97.22
2022-09-26T04:26:24.718Z,96.94
2022-09-26T04:29:29.117Z,96.87
2022-09-26T04:32:50.036Z,96.68
2022-09-26T04:35:52.822Z,96.91
2022-09-26T04:38:55.064Z,96.82
2022-09-26T04:41:57.319Z,96.67
2022-09-26T04:44:59.786Z,96.48
2022-09-26T04:48:02.914Z,96.58
2022-09-26T04:51:25.944Z,95.15
2022-09-26T04:54:28.320Z,94.88
2022-09-26T04:57:30.807Z,94.29
2022-09-26T05:00:33.030Z,94.40
2022-09-26T05:03:39.593Z,95.41
2022-09-26T05:06:42.664Z,95.21
2022-09-26T05:09:55.785Z,95.00
2022-09-26T05:12:59.932Z,94.90
2022-09-26T05:16:03.029Z,95.25
2022-09-26T05:19:05.379Z,95.28
2022-09-26T05:22:10.805Z,95.43
2022-09-26T05:25:31.681Z,95.65
2022-09-26T05:28:35.053Z,95.44
2022-09-26T05:31:38.393Z,95.88
2022-09-26T05:34:40.755Z,95.91
2022-09-26T05:37:47.131Z,95.97
2022-09-26T05:41:01.896Z,96.07
2022-09-26T05:44:04.149Z,96.07
2022-09-26T05:47:11.704Z,95.83
2022-09-26T05:50:16.919Z,95.97
2022-09-26T05:53:19.963Z,96.10
2022-09-26T05:56:26.049Z,96.60
2022-09-26T05:59:58.210Z,96.81
2022-09-26T06:03:04.081Z,97.02
2022-09-26T06:06:27.300Z,96.42
2022-09-26T06:09:43.147Z,96.76
2022-09-26T06:12:51.264Z,96.43
2022-09-26T06:16:00.417Z,95.92
2022-09-26T06:19:02.803Z,96.03
2022-09-26T06:22:05.490Z,96.19
2022-09-26T06:25:10.189Z,96.63
2022-09-26T06:28:14.261Z,96.65
2022-09-26T06:31:18.863Z,96.31
2022-09-26T06:34:40.040Z,95.21
2022-09-26T06:38:05.841Z,95.58
2022-09-26T06:41:08.053Z,94.93
2022-09-26T06:44:10.848Z,95.64
2022-09-26T06:47:44.976Z,95.87
2022-09-26T06:51:06.370Z,95.73
2022-09-26T06:54:10.097Z,95.77
2022-09-26T06:57:15.360Z,96.09
2022-09-26T07:00:17.933Z,95.84
2022-09-26T07:03:54.514Z,95.69
2022-09-26T07:07:14.165Z,95.69
2022-09-26T07:10:20.077Z,95.33
2022-09-26T07:13:38.306Z,95.01
2022-09-26T07:16:42.174Z,94.83
2022-09-26T07:20:19.465Z,95.55
2022-09-26T07:23:59.937Z,95.43
2022-09-26T07:27:03.941Z,95.07
2022-09-26T07:30:14.867Z,95.42
2022-09-26T07:33:30.140Z,95.16
2022-09-26T07:36:43.574Z,94.87
2022-09-26T07:39:59.342Z,94.94
2022-09-26T07:43:19.052Z,94.59
2022-09-26T07:46:42.760Z,94.79
2022-09-26T07:50:06.809Z,94.83
2022-09-26T07:53:22.598Z,95.13
2022-09-26T07:56:45.979Z,95.04
2022-09-26T08:00:12.903Z,95.27
2022-09-26T08:03:31.660Z,95.78
2022-09-26T08:06:37.480Z,96.00
2022-09-26T08:09:40.784Z,96.10
2022-09-26T08:12:48.378Z,95.99
2022-09-26T08:16:11.706Z,95.97
2022-09-26T08:19:26.899Z,96.19
2022-09-26T08:22:32.427Z,96.28
2022-09-26T08:25:35.217Z,95.86
2022-09-26T08:28:44.170Z,96.53
2022-09-26T08:31:47.813Z,96.51
2022-09-26T08:34:53.059Z,96.54
2022-09-26T08:38:18.925Z,96.60
2022-09-26T08:41:58.080Z,95.94
2022-09-26T08:46:01.859Z,95.57
2022-09-26T08:49:32.169Z,95.48
2022-09-26T08:52:37.524Z,94.82
2022-09-26T08:55:43.094Z,94.27
2022-09-26T08:58:51.963Z,93.55
2022-09-26T09:02:05.142Z,93.60
2022-09-26T09:05:27.004Z,93.51
2022-09-26T09:08:44.800Z,93.51
2022-09-26T09:12:08.598Z,92.79
2022-09-26T09:15:42.150Z,91.79
2022-09-26T09:19:04.671Z,91.28
2022-09-26T09:22:41.540Z,91.52
2022-09-26T09:29:37.662Z,88.99
2022-09-26T09:33:04.948Z,91.00
2022-09-26T09:36:20.972Z,89.36
2022-09-26T09:39:49.843Z,90.10
2022-09-26T09:43:04.304Z,89.72
2022-09-26T09:46:15.895Z,89.55
2022-09-26T09:49:25.892Z,90.43
2022-09-26T09:52:43.040Z,90.10
2022-09-26T09:55:46.437Z,91.63
2022-09-26T09:58:58.200Z,91.99
2022-09-26T10:02:35.498Z,92.70
2022-09-26T10:05:42.758Z,92.61
2022-09-26T10:08:50.698Z,93.20
2022-09-26T10:12:17.108Z,94.34
2022-09-26T10:15:56.334Z,93.18
2022-09-26T10:19:37.532Z,93.31
2022-09-26T10:22:45.985Z,93.32
2022-09-26T10:26:06.903Z,92.75
2022-09-26T10:29:24.647Z,92.78
2022-09-26T10:32:29.288Z,92.67
2022-09-26T10:35:54.253Z,91.90
2022-09-26T10:39:21.441Z,90.96
2022-09-26T10:42:32.275Z,89.67
2022-09-26T10:45:40.084Z,89.40
2022-09-26T10:49:15.566Z,89.35
2022-09-26T10:52:47.072Z,89.16
2022-09-26T10:55:58.274Z,89.17
2022-09-26T10:59:10.282Z,88.60
2022-09-26T11:02:20.179Z,88.42
2022-09-26T11:05:42.982Z,87.46
2022-09-26T11:08:58.758Z,87.92
2022-09-26T11:12:25.291Z,88.06
2022-09-26T11:15:39.019Z,86.81
2022-09-26T11:18:50.463Z,84.85
2022-09-26T11:22:11.166Z,84.89
2022-09-26T11:25:25.581Z,81.56
2022-09-26T11:28:38.578Z,80.79
2022-09-26T11:32:05.107Z,79.83
2022-09-26T11:35:35.655Z,79.92
2022-09-26T11:39:08.149Z,80.64
2022-09-26T11:42:35.512Z,80.08
2022-09-26T11:46:04.776Z,81.38
2022-09-26T11:50:05.843Z,83.20
2022-09-26T11:53:28.975Z,82.84
2022-09-26T11:56:51.024Z,81.44
2022-09-26T12:00:12.927Z,82.82
2022-09-26T12:03:33.567Z,83.51
2022-09-26T12:06:45.113Z,82.93
2022-09-26T12:10:14.954Z,83.34
2022-09-26T12:13:34.275Z,83.63
2022-09-26T12:17:01.334Z,83.71
2022-09-26T12:20:24.605Z,84.74
2022-09-26T12:23:54.398Z,85.05
2022-09-26T12:27:06.816Z,84.28
2022-09-26T12:30:14.363Z,84.88
2022-09-26T12:33:35.421Z,86.62
2022-09-26T12:36:48.030Z,85.75
2022-09-26T12:39:53.269Z,85.67
2022-09-26T12:43:33.791Z,86.22
2022-09-26T12:47:13.289Z,88.22
2022-09-26T12:50:29.282Z,87.80
2022-09-26T12:53:44.467Z,88.65
2022-09-26T12:56:53.508Z,88.19
2022-09-26T13:00:23.098Z,87.54
2022-09-26T13:03:25.248Z,85.97
2022-09-26T13:06:37.743Z,85.49
2022-09-26T13:09:55.984Z,86.16
2022-09-26T13:13:23.228Z,85.27
2022-09-26T13:16:40.443Z,84.80
2022-09-26T13:20:00.884Z,85.20
2022-09-26T13:23:11.031Z,86.54
2022-09-26T13:26:46.944Z,87.02
2022-09-26T13:29:58.520Z,87.34
2022-09-26T13:33:23.082Z,86.37
2022-09-26T13:36:25.823Z,87.05
2022-09-26T13:39:53.760Z,88.05
2022-09-26T13:43:10.614Z,87.32
2022-09-26T13:46:16.173Z,86.89
2022-09-26T13:49:37.204Z,85.23
2022-09-26T13:52:57.952Z,85.14
2022-09-26T13:56:34.082Z,84.97
2022-09-26T13:59:51.607Z,83.66
2022-09-26T14:03:18.089Z,83.20
2022-09-26T14:06:29.051Z,83.81
2022-09-26T14:09:52.436Z,82.20
2022-09-26T14:13:03.269Z,82.53
2022-09-26T14:16:28.259Z,82.69
2022-09-26T14:19:39.401Z,81.69
2022-09-26T14:22:51.454Z,81.33
2022-09-26T14:25:55.630Z,81.49
2022-09-26T14:29:29.698Z,82.26
2022-09-26T14:32:40.445Z,83.42
2022-09-26T14:35:43.553Z,83.18
2022-09-26T14:38:48.452Z,82.98
2022-09-26T14:41:50.726Z,82.42
2022-09-26T14:44:59.443Z,85.40
2022-09-26T14:48:13.083Z,84.47
2022-09-26T14:51:19.360Z,85.73
2022-09-26T14:54:47.678Z,87.15
2022-09-26T14:57:50.014Z,88.22
2022-09-26T15:00:55.067Z,87.93
2022-09-26T15:04:03.065Z,87.59
2022-09-26T15:07:16.231Z,88.34
2022-09-26T15:10:36.751Z,88.83
2022-09-26T15:13:45.131Z,88.89
2022-09-26T15:16:52.536Z,89.20
2022-09-26T15:19:58.907Z,88.35
2022-09-26T15:23:02.040Z,88.64
2022-09-26T15:26:04.368Z,90.21
2022-09-26T15:29:08.012Z,89.85
2022-09-26T15:32:17.156Z,89.88
2022-09-26T15:35:19.480Z,89.69
2022-09-26T15:38:24.075Z,88.38
2022-09-26T15:41:45.161Z,90.49
2022-09-26T15:45:01.280Z,90.66
2022-09-26T15:48:04.674Z,91.15
2022-09-26T15:51:14.828Z,90.53
2022-09-26T15:54:23.062Z,91.54
2022-09-26T15:57:25.529Z,91.91
2022-09-26T16:00:33.173Z,92.43
2022-09-26T16:03:51.093Z,92.66
2022-09-26T16:07:03.722Z,93.91
2022-09-26T16:10:18.065Z,94.23
2022-09-26T16:13:25.391Z,94.75
2022-09-26T16:16:32.014Z,95.02
2022-09-26T16:19:35.991Z,95.10
2022-09-26T16:22:45.626Z,95.93
2022-09-26T16:25:54.893Z,96.22
2022-09-26T16:28:58.644Z,95.81
2022-09-26T16:32:02.793Z,95.88
2022-09-26T16:35:16.719Z,95.86
2022-09-26T16:38:25.680Z,95.86
2022-09-26T16:42:01.898Z,95.41
2022-09-26T16:45:14.269Z,95.70
2022-09-26T16:48:55.254Z,96.70
2022-09-26T16:52:26.811Z,97.46
2022-09-26T16:55:33.018Z,97.20
2022-09-26T16:58:35.404Z,96.75
2022-09-26T17:01:56.203Z,97.09
2022-09-26T17:04:58.524Z,98.07
2022-09-26T17:08:00.819Z,97.47
2022-09-26T17:11:04.359Z,97.14
2022-09-26T17:14:06.656Z,97.34
2022-09-26T17:17:30.515Z,98.01
2022-09-26T17:20:32.812Z,97.73
2022-09-26T17:23:41.989Z,97.51
2022-09-26T17:27:06.035Z,97.41
2022-09-26T17:30:16.793Z,97.59
2022-09-26T17:33:19.028Z,97.98
2022-09-26T17:36:28.491Z,98.01
2022-09-26T17:39:30.923Z,98.42
2022-09-26T17:42:33.176Z,97.95
2022-09-26T17:45:45.140Z,97.79
2022-09-26T17:48:47.483Z,98.15
2022-09-26T17:51:49.897Z,98.62
2022-09-26T17:54:55.798Z,98.97
2022-09-26T17:57:59.743Z,98.78
2022-09-26T18:01:03.623Z,98.97
2022-09-26T18:04:07.542Z,98.63
2022-09-26T18:07:15.319Z,98.53
2022-09-26T18:10:23.770Z,98.14
2022-09-26T18:13:34.019Z,98.16
2022-09-26T18:16:36.329Z,98.36
2022-09-26T18:19:38.617Z,97.39
2022-09-26T18:22:50.264Z,97.81
2022-09-26T18:25:59.457Z,97.95
2022-09-26T18:29:07.572Z,98.05
2022-09-26T18:32:23.418Z,98.40
2022-09-26T18:35:27.766Z,98.48
2022-09-26T18:38:30.184Z,98.35
2022-09-26T18:41:32.918Z,98.22
2022-09-26T18:44:35.608Z,98.23
2022-09-26T18:47:45.233Z,97.75
2022-09-26T18:50:47.667Z,97.97
2022-09-26T18:53:50.008Z,98.28
2022-09-26T18:57:10.954Z,98.09
2022-09-26T19:00:13.221Z,98.32
2022-09-26T19:03:16.251Z,99.05
2022-09-26T19:06:23.155Z,98.98
2022-09-26T19:09:26.995Z,98.82
2022-09-26T19:12:31.357Z,98.68
2022-09-26T19:15:33.672Z,99.09
2022-09-26T19:18:36.393Z,99.20
2022-09-26T19:21:44.521Z,99.19
2022-09-26T19:24:56.116Z,99.01
2022-09-26T19:27:59.290Z,98.82
2022-09-26T19:31:03.607Z,98.90
2022-09-26T19:34:06.249Z,99.24
2022-09-26T19:37:13.047Z,99.38
2022-09-26T19:40:17.674Z,98.86
2022-09-26T19:43:21.501Z,98.94
2022-09-26T19:46:27.570Z,99.99
2022-09-26T19:49:31.999Z,99.99
2022-09-26T19:52:34.350Z,99.99
2022-09-26T19:55:36.768Z,99.76
2022-09-26T19:58:39.186Z,99.80
2022-09-26T20:01:44.045Z,99.64
2022-09-26T20:04:46.756Z,99.80
2022-09-26T20:07:49.066Z,99.92
2022-09-26T20:10:55.576Z,99.84
2022-09-26T20:14:16.435Z,99.85
2022-09-26T20:17:24.545Z,99.99
2022-09-26T20:20:27.759Z,99.99
2022-09-26T20:23:30.215Z,99.99
2022-09-26T20:26:33.595Z,99.99
2022-09-26T20:29:55.799Z,99.99
2022-09-26T20:32:59.130Z,99.99
2022-09-26T20:36:04.334Z,99.55
2022-09-26T20:39:12.006Z,99.11
2022-09-26T20:42:17.617Z,99.23
2022-09-26T20:45:24.855Z,99.31
2022-09-26T20:48:28.188Z,99.19
2022-09-26T20:51:35.129Z,99.37
2022-09-26T20:54:37.487Z,99.35
2022-09-26T20:57:40.230Z,99.62
2022-09-26T21:00:43.359Z,99.99
2022-09-26T21:03:50.842Z,99.99
2022-09-26T21:06:53.103Z,99.57
2022-09-26T21:09:55.372Z,99.57
2022-09-26T21:12:58.735Z,99.64
2022-09-26T21:16:01.190Z,99.50
2022-09-26T21:19:05.380Z,99.89
2022-09-26T21:22:10.944Z,99.69
2022-09-26T21:25:19.074Z,99.67
2022-09-26T21:28:26.719Z,99.69
2022-09-26T21:31:32.227Z,99.62
2022-09-26T21:34:34.918Z,99.94
2022-09-26T21:37:37.175Z,99.96
2022-09-26T21:40:42.726Z,99.89
2022-09-26T21:43:49.872Z,99.99
2022-09-26T21:46:52.140Z,99.96
2022-09-26T21:49:54.600Z,99.99
2022-09-26T21:53:04.813Z,99.95
2022-09-26T21:56:13.564Z,99.77
2022-09-26T21:59:18.876Z,99.87
2022-09-26T22:02:28.009Z,99.88
2022-09-26T22:05:31.346Z,99.68
2022-09-26T22:08:37.649Z,99.40
2022-09-26T22:11:40.347Z,99.62
2022-09-26T22:14:42.662Z,99.48
2022-09-26T22:17:44.941Z,99.11
2022-09-26T22:20:54.412Z,99.05
2022-09-26T22:23:56.885Z,98.99
2022-09-26T22:26:59.399Z,99.08
2022-09-26T22:30:02.273Z,98.65
2022-09-26T22:33:04.529Z,99.03
2022-09-26T22:36:07.152Z,98.51
2022-09-26T22:39:09.421Z,98.55
2022-09-26T22:42:12.003Z,99.33
2022-09-26T22:45:14.651Z,99.83
2022-09-26T22:48:17.127Z,99.99
2022-09-26T22:51:19.461Z,99.99
2022-09-26T22:54:22.097Z,99.99
2022-09-26T22:57:24.618Z,99.99
2022-09-26T23:00:27.231Z,99.99
2022-09-26T23:03:29.642Z,99.99
2022-09-26T23:06:32.076Z,99.99
2022-09-26T23:09:34.317Z,99.99
2022-09-26T23:12:40.456Z,99.99
2022-09-26T23:15:42.778Z,98.94
2022-09-26T23:18:45.240Z,99.29
2022-09-26T23:21:47.499Z,99.20
2022-09-26T23:24:49.732Z,99.40
2022-09-26T23:27:52.000Z,99.55
2022-09-26T23:30:54.260Z,99.53
2022-09-26T23:33:57.440Z,99.76
2022-09-26T23:36:59.672Z,99.99
2022-09-26T23:40:02.065Z,99.99
2022-09-26T23:43:04.313Z,99.99
2022-09-26T23:46:07.440Z,99.99
2022-09-26T23:49:09.852Z,99.99
2022-09-26T23:52:12.107Z,99.75
2022-09-26T23:55:14.479Z,99.87
2022-09-26T23:58:17.078Z,99.74
